createdAt,value
2023-04-07T00:00:26.775Z,8.40
2023-04-07T00:02:53.606Z,8.40
2023-04-07T00:05:20.548Z,8.50
2023-04-07T00:07:55.781Z,8.60
2023-04-07T00:10:23.541Z,8.70
2023-04-07T00:12:50.258Z,8.80
2023-04-07T00:15:16.982Z,8.80
2023-04-07T00:17:43.689Z,8.90
2023-04-07T00:20:10.875Z,8.80
2023-04-07T00:22:37.738Z,8.80
2023-04-07T00:25:04.726Z,8.90
2023-04-07T00:27:31.900Z,8.90
2023-04-07T00:29:58.560Z,8.90
2023-04-07T00:32:25.287Z,8.90
2023-04-07T00:34:52.208Z,8.80
2023-04-07T00:37:19.385Z,8.70
2023-04-07T00:39:46.742Z,8.50
2023-04-07T00:42:13.640Z,8.60
2023-04-07T00:44:40.483Z,8.60
2023-04-07T00:47:07.163Z,8.60
2023-04-07T00:49:34.013Z,8.60
2023-04-07T00:52:01.489Z,8.70
2023-04-07T00:54:30.411Z,8.70
2023-04-07T00:56:57.488Z,8.70
2023-04-07T00:59:25.200Z,8.70
2023-04-07T01:02:07.590Z,8.60
2023-04-07T01:04:45.309Z,8.60
2023-04-07T01:07:18.026Z,8.50
2023-04-07T01:09:55.208Z,8.20
2023-04-07T01:12:36.166Z,8.20
2023-04-07T01:15:11.007Z,8.30
2023-04-07T01:17:43.551Z,8.30
2023-04-07T01:20:14.250Z,8.20
2023-04-07T01:22:44.693Z,8.10
2023-04-07T01:25:28.490Z,8.20
2023-04-07T01:28:02.027Z,8.20
2023-04-07T01:30:34.902Z,8.30
2023-04-07T01:33:04.118Z,8.30
2023-04-07T01:35:34.708Z,8.20
2023-04-07T01:38:03.091Z,8.30
2023-04-07T01:40:31.256Z,8.20
2023-04-07T01:42:58.571Z,8.10
2023-04-07T01:45:27.449Z,8.20
2023-04-07T01:47:55.299Z,8.00
2023-04-07T01:50:22.476Z,8.10
2023-04-07T01:52:49.568Z,8.20
2023-04-07T01:55:16.370Z,8.20
2023-04-07T01:57:43.062Z,8.30
2023-04-07T02:00:10.200Z,8.30
2023-04-07T02:02:42.015Z,8.40
2023-04-07T02:05:12.010Z,8.30
2023-04-07T02:07:49.755Z,8.30
2023-04-07T02:10:19.972Z,8.30
2023-04-07T02:12:47.716Z,8.30
2023-04-07T02:15:15.665Z,8.40
2023-04-07T02:17:44.962Z,8.20
2023-04-07T02:20:12.877Z,8.20
2023-04-07T02:22:41.006Z,8.20
2023-04-07T02:25:29.423Z,8.00
2023-04-07T02:27:56.992Z,8.00
2023-04-07T02:30:24.085Z,8.10
2023-04-07T02:32:50.901Z,7.90
2023-04-07T02:35:17.977Z,7.80
2023-04-07T02:37:45.745Z,7.90
2023-04-07T02:40:12.953Z,8.00
2023-04-07T02:42:39.766Z,8.00
2023-04-07T02:45:07.167Z,8.10
2023-04-07T02:47:34.651Z,8.00
2023-04-07T02:50:01.373Z,8.10
2023-04-07T02:52:28.117Z,8.20
2023-04-07T02:54:54.843Z,8.20
2023-04-07T02:57:21.468Z,8.20
2023-04-07T02:59:48.238Z,8.10
2023-04-07T03:02:14.966Z,8.10
2023-04-07T03:04:41.870Z,8.10
2023-04-07T03:07:08.801Z,8.20
2023-04-07T03:09:35.474Z,8.20
2023-04-07T03:12:02.352Z,8.20
2023-04-07T03:14:28.984Z,8.20
2023-04-07T03:16:56.461Z,8.20
2023-04-07T03:19:23.246Z,8.20
2023-04-07T03:21:50.084Z,8.10
2023-04-07T03:24:16.853Z,8.20
2023-04-07T03:26:43.606Z,8.00
2023-04-07T03:29:10.276Z,8.00
2023-04-07T03:31:37.689Z,7.90
2023-04-07T03:34:04.825Z,8.00
2023-04-07T03:36:31.871Z,7.90
2023-04-07T03:38:58.670Z,8.10
2023-04-07T03:41:25.470Z,8.10
2023-04-07T03:43:52.491Z,8.30
2023-04-07T03:46:21.271Z,8.30
2023-04-07T03:48:47.990Z,8.30
2023-04-07T03:51:15.020Z,8.20
2023-04-07T03:53:41.702Z,8.30
2023-04-07T03:56:08.527Z,8.20
2023-04-07T03:58:35.355Z,8.20
2023-04-07T04:01:02.590Z,8.30
2023-04-07T04:03:29.380Z,8.30
2023-04-07T04:05:56.168Z,8.30
2023-04-07T04:08:22.841Z,8.20
2023-04-07T04:10:49.596Z,8.20
2023-04-07T04:13:16.581Z,8.20
2023-04-07T04:15:43.773Z,8.20
2023-04-07T04:18:10.514Z,8.10
2023-04-07T04:20:37.841Z,8.00
2023-04-07T04:23:04.514Z,7.90
2023-04-07T04:25:31.225Z,7.90
2023-04-07T04:27:57.867Z,8.10
2023-04-07T04:30:24.604Z,8.10
2023-04-07T04:32:51.362Z,8.00
2023-04-07T04:35:18.213Z,8.00
2023-04-07T04:37:44.828Z,8.00
2023-04-07T04:40:12.095Z,8.00
2023-04-07T04:42:38.729Z,7.90
2023-04-07T04:45:05.966Z,7.80
2023-04-07T04:47:32.627Z,7.80
2023-04-07T04:49:59.383Z,7.80
2023-04-07T04:52:27.115Z,7.70
2023-04-07T04:54:54.711Z,7.70
2023-04-07T04:57:21.321Z,7.70
2023-04-07T04:59:47.971Z,7.80
2023-04-07T05:02:14.850Z,7.80
2023-04-07T05:04:41.660Z,7.80
2023-04-07T05:07:08.342Z,7.80
2023-04-07T05:09:34.991Z,7.80
2023-04-07T05:12:02.511Z,7.80
2023-04-07T05:14:29.208Z,7.90
2023-04-07T05:16:55.894Z,7.90
2023-04-07T05:19:22.605Z,8.00
2023-04-07T05:21:49.286Z,8.00
2023-04-07T05:24:15.902Z,8.00
2023-04-07T05:26:42.526Z,8.00
2023-04-07T05:29:09.127Z,7.90
2023-04-07T05:31:37.308Z,8.00
2023-04-07T05:34:04.054Z,8.10
2023-04-07T05:36:31.739Z,8.20
2023-04-07T05:38:58.438Z,8.20
2023-04-07T05:41:25.105Z,8.20
2023-04-07T05:43:52.066Z,8.10
2023-04-07T05:46:19.022Z,8.20
2023-04-07T05:48:45.763Z,8.10
2023-04-07T05:51:12.402Z,8.10
2023-04-07T05:53:39.045Z,8.00
2023-04-07T05:56:05.996Z,7.90
2023-04-07T05:58:32.908Z,8.00
2023-04-07T06:00:59.557Z,7.80
2023-04-07T06:03:26.506Z,7.40
2023-04-07T06:05:53.257Z,7.50
2023-04-07T06:08:19.968Z,7.70
2023-04-07T06:10:46.722Z,7.80
2023-04-07T06:13:13.367Z,7.80
2023-04-07T06:15:39.991Z,7.70
2023-04-07T06:18:06.740Z,7.70
2023-04-07T06:20:33.408Z,7.70
2023-04-07T06:23:00.072Z,7.70
2023-04-07T06:25:26.905Z,7.90
2023-04-07T06:27:54.627Z,7.90
2023-04-07T06:30:21.326Z,7.90
2023-04-07T06:32:48.042Z,7.80
2023-04-07T06:35:14.794Z,7.90
2023-04-07T06:37:41.496Z,7.90
2023-04-07T06:40:16.989Z,7.90
2023-04-07T06:42:43.754Z,7.90
2023-04-07T06:45:10.841Z,7.90
2023-04-07T06:47:38.274Z,7.70
2023-04-07T06:50:05.800Z,7.80
2023-04-07T06:52:32.476Z,7.90
2023-04-07T06:54:59.645Z,7.90
2023-04-07T06:57:26.301Z,7.90
2023-04-07T06:59:52.984Z,8.00
2023-04-07T07:02:19.941Z,7.90
2023-04-07T07:04:46.972Z,8.00
2023-04-07T07:07:13.643Z,7.90
2023-04-07T07:09:40.469Z,7.90
2023-04-07T07:12:07.339Z,8.00
2023-04-07T07:14:34.012Z,8.00
2023-04-07T07:17:01.444Z,8.10
2023-04-07T07:19:28.121Z,8.10
2023-04-07T07:21:55.679Z,8.20
2023-04-07T07:24:22.409Z,8.50
2023-04-07T07:26:49.027Z,8.50
2023-04-07T07:29:15.965Z,8.60
2023-04-07T07:31:42.938Z,8.70
2023-04-07T07:34:09.594Z,8.80
2023-04-07T07:36:36.298Z,9.00
2023-04-07T07:39:02.965Z,9.30
2023-04-07T07:41:29.702Z,9.50
2023-04-07T07:43:56.457Z,9.60
2023-04-07T07:46:25.924Z,9.80
2023-04-07T07:48:52.822Z,9.90
2023-04-07T07:51:19.529Z,10.00
2023-04-07T07:53:46.784Z,10.10
2023-04-07T07:56:13.704Z,9.90
2023-04-07T07:58:40.459Z,10.10
2023-04-07T08:01:07.286Z,10.50
2023-04-07T08:03:34.124Z,10.80
2023-04-07T08:06:01.148Z,11.40
2023-04-07T08:08:27.841Z,11.50
2023-04-07T08:10:54.500Z,11.70
2023-04-07T08:13:21.289Z,11.90
2023-04-07T08:15:48.022Z,12.20
2023-04-07T08:18:14.848Z,12.50
2023-04-07T08:20:41.555Z,12.70
2023-04-07T08:23:08.192Z,12.70
2023-04-07T08:25:35.513Z,12.80
2023-04-07T08:28:02.230Z,13.00
2023-04-07T08:30:28.928Z,13.20
2023-04-07T08:32:56.702Z,12.90
2023-04-07T08:35:23.615Z,12.90
2023-04-07T08:37:50.412Z,13.30
2023-04-07T08:40:17.404Z,13.30
2023-04-07T08:42:47.546Z,13.40
2023-04-07T08:45:16.491Z,13.40
2023-04-07T08:47:43.510Z,13.40
2023-04-07T08:50:11.937Z,13.60
2023-04-07T08:52:51.373Z,13.60
2023-04-07T08:55:18.089Z,13.70
2023-04-07T08:57:45.954Z,13.70
2023-04-07T09:00:13.680Z,13.70
2023-04-07T09:02:44.444Z,13.50
2023-04-07T09:05:13.510Z,13.70
2023-04-07T09:07:40.644Z,13.80
2023-04-07T09:10:08.082Z,13.90
2023-04-07T09:12:34.970Z,13.50
2023-04-07T09:15:01.663Z,13.40
2023-04-07T09:17:29.768Z,13.30
2023-04-07T09:20:01.029Z,13.30
2023-04-07T09:22:45.776Z,13.30
2023-04-07T09:25:26.386Z,13.40
2023-04-07T09:28:05.525Z,13.60
2023-04-07T09:30:33.665Z,13.40
2023-04-07T09:33:01.829Z,13.50
2023-04-07T09:35:29.787Z,13.70
2023-04-07T09:38:09.941Z,13.90
2023-04-07T09:40:37.597Z,14.00
2023-04-07T09:43:06.144Z,14.00
2023-04-07T09:45:36.264Z,13.80
2023-04-07T09:48:27.767Z,13.90
2023-04-07T09:51:06.628Z,13.90
2023-04-07T09:53:47.920Z,14.10
2023-04-07T09:56:19.428Z,14.40
2023-04-07T09:58:47.165Z,14.20
2023-04-07T10:01:16.949Z,14.30
2023-04-07T10:03:44.587Z,13.40
2023-04-07T10:06:11.790Z,13.40
2023-04-07T10:08:41.712Z,13.50
2023-04-07T10:11:09.455Z,13.40
2023-04-07T10:13:39.846Z,13.50
2023-04-07T10:16:08.194Z,13.70
2023-04-07T10:18:37.080Z,13.60
2023-04-07T10:21:07.136Z,13.90
2023-04-07T10:23:53.724Z,13.60
2023-04-07T10:26:23.854Z,13.70
2023-04-07T10:28:55.753Z,13.80
2023-04-07T10:31:24.145Z,14.00
2023-04-07T10:33:54.939Z,13.80
2023-04-07T10:36:22.289Z,13.70
2023-04-07T10:39:07.820Z,13.60
2023-04-07T10:41:35.332Z,13.70
2023-04-07T10:44:06.179Z,13.80
2023-04-07T10:46:48.397Z,13.70
2023-04-07T10:49:19.340Z,14.10
2023-04-07T10:52:24.951Z,13.80
2023-04-07T10:55:33.665Z,13.90
2023-04-07T10:58:18.215Z,14.00
2023-04-07T11:00:57.219Z,14.10
2023-04-07T11:03:25.105Z,14.00
2023-04-07T11:05:51.936Z,13.70
2023-04-07T11:08:34.142Z,13.80
2023-04-07T11:11:00.870Z,13.90
2023-04-07T11:13:27.712Z,14.20
2023-04-07T11:15:54.589Z,14.10
2023-04-07T11:18:23.751Z,14.40
2023-04-07T11:20:56.351Z,14.50
2023-04-07T11:23:25.136Z,14.40
2023-04-07T11:25:54.269Z,14.10
2023-04-07T11:28:21.180Z,13.90
2023-04-07T11:30:51.815Z,14.40
2023-04-07T11:33:21.007Z,13.90
2023-04-07T11:35:53.238Z,14.10
2023-04-07T11:38:21.120Z,14.40
2023-04-07T11:40:48.488Z,14.50
2023-04-07T11:43:19.487Z,14.40
2023-04-07T11:45:46.473Z,14.60
2023-04-07T11:48:32.762Z,14.50
2023-04-07T11:51:00.605Z,14.40
2023-04-07T11:53:36.041Z,14.70
2023-04-07T11:56:03.700Z,14.80
2023-04-07T11:58:30.550Z,14.60
2023-04-07T12:01:05.853Z,14.50
2023-04-07T12:03:34.649Z,14.30
2023-04-07T12:06:05.076Z,14.10
2023-04-07T12:08:43.429Z,14.20
2023-04-07T12:11:10.384Z,14.40
2023-04-07T12:13:37.858Z,14.70
2023-04-07T12:16:09.771Z,14.80
2023-04-07T12:18:36.618Z,14.60
2023-04-07T12:21:03.567Z,14.30
2023-04-07T12:23:30.446Z,14.20
2023-04-07T12:25:57.085Z,14.20
2023-04-07T12:28:23.803Z,14.00
2023-04-07T12:30:50.546Z,14.10
2023-04-07T12:33:17.269Z,14.10
2023-04-07T12:35:44.026Z,13.90
2023-04-07T12:38:10.987Z,13.70
2023-04-07T12:40:40.852Z,13.60
2023-04-07T12:43:07.553Z,13.40
2023-04-07T12:45:34.242Z,13.20
2023-04-07T12:48:06.406Z,13.10
2023-04-07T12:50:33.157Z,13.00
2023-04-07T12:53:01.390Z,13.00
2023-04-07T12:55:30.764Z,12.70
2023-04-07T12:57:57.489Z,12.80
2023-04-07T13:00:24.528Z,12.70
2023-04-07T13:02:51.412Z,12.60
2023-04-07T13:05:18.817Z,12.40
2023-04-07T13:07:46.149Z,12.30
2023-04-07T13:10:13.777Z,12.30
2023-04-07T13:12:41.273Z,12.10
2023-04-07T13:15:08.464Z,11.90
2023-04-07T13:17:36.596Z,11.80
2023-04-07T13:20:05.250Z,11.70
2023-04-07T13:22:32.410Z,11.50
2023-04-07T13:25:02.447Z,11.30
2023-04-07T13:27:29.283Z,11.40
2023-04-07T13:29:59.697Z,11.50
2023-04-07T13:32:27.167Z,11.50
2023-04-07T13:34:53.962Z,11.60
2023-04-07T13:37:20.769Z,11.50
2023-04-07T13:39:47.533Z,11.60
2023-04-07T13:42:17.594Z,11.60
2023-04-07T13:44:47.512Z,11.80
2023-04-07T13:47:19.388Z,11.80
2023-04-07T13:49:49.616Z,11.80
2023-04-07T13:52:16.611Z,11.90
2023-04-07T13:54:44.043Z,12.00
2023-04-07T13:57:10.906Z,12.10
2023-04-07T13:59:37.599Z,12.20
2023-04-07T14:02:04.436Z,12.20
2023-04-07T14:04:33.579Z,12.30
2023-04-07T14:07:00.316Z,12.30
2023-04-07T14:09:27.056Z,12.30
2023-04-07T14:11:53.738Z,12.30
2023-04-07T14:14:20.385Z,12.20
2023-04-07T14:16:49.194Z,12.20
2023-04-07T14:19:16.006Z,12.30
2023-04-07T14:21:42.672Z,12.30
2023-04-07T14:24:09.384Z,12.30
2023-04-07T14:26:36.138Z,12.40
2023-04-07T14:29:03.986Z,12.50
2023-04-07T14:31:30.793Z,12.40
2023-04-07T14:33:57.551Z,12.50
2023-04-07T14:36:24.226Z,12.60
2023-04-07T14:38:50.994Z,12.80
2023-04-07T14:41:18.226Z,12.70
2023-04-07T14:43:44.980Z,12.90
2023-04-07T14:46:12.411Z,12.90
2023-04-07T14:48:39.237Z,12.90
2023-04-07T14:51:12.517Z,12.90
2023-04-07T14:53:42.270Z,13.10
2023-04-07T14:56:09.403Z,13.10
2023-04-07T14:58:38.784Z,13.00
2023-04-07T15:01:06.542Z,13.20
2023-04-07T15:03:35.061Z,13.00
2023-04-07T15:06:01.917Z,13.10
2023-04-07T15:08:28.607Z,13.30
2023-04-07T15:10:55.331Z,13.20
2023-04-07T15:13:22.001Z,13.20
2023-04-07T15:15:48.719Z,13.40
2023-04-07T15:18:15.600Z,13.40
2023-04-07T15:20:42.463Z,13.40
2023-04-07T15:23:09.151Z,13.40
2023-04-07T15:25:35.975Z,13.40
2023-04-07T15:28:02.668Z,13.40
2023-04-07T15:30:29.467Z,13.30
2023-04-07T15:33:00.599Z,13.30
2023-04-07T15:35:27.605Z,13.10
2023-04-07T15:37:54.369Z,13.10
2023-04-07T15:40:21.258Z,13.30
2023-04-07T15:42:48.074Z,13.30
2023-04-07T15:45:14.763Z,13.40
2023-04-07T15:47:41.555Z,13.40
2023-04-07T15:50:08.956Z,13.30
2023-04-07T15:52:35.618Z,13.30
2023-04-07T15:55:02.331Z,13.20
2023-04-07T15:57:29.013Z,13.10
2023-04-07T15:59:55.673Z,13.10
2023-04-07T16:02:22.465Z,13.10
2023-04-07T16:04:49.250Z,13.10
2023-04-07T16:07:15.961Z,13.20
2023-04-07T16:09:42.675Z,13.00
2023-04-07T16:12:09.311Z,12.80
2023-04-07T16:14:36.257Z,12.80
2023-04-07T16:17:03.127Z,12.80
2023-04-07T16:19:29.849Z,12.80
2023-04-07T16:21:56.566Z,12.70
2023-04-07T16:24:23.225Z,12.70
2023-04-07T16:26:54.389Z,12.60
2023-04-07T16:29:24.959Z,12.60
2023-04-07T16:32:07.978Z,12.60
2023-04-07T16:35:14.525Z,12.50
2023-04-07T16:38:22.165Z,12.60
2023-04-07T16:41:04.494Z,12.60
2023-04-07T16:43:36.710Z,12.50
2023-04-07T16:46:04.237Z,12.30
2023-04-07T16:48:31.115Z,12.50
2023-04-07T16:50:57.773Z,12.40
2023-04-07T16:53:24.414Z,12.50
2023-04-07T16:55:51.080Z,12.50
2023-04-07T16:58:19.512Z,12.60
2023-04-07T17:00:46.470Z,12.60
2023-04-07T17:03:16.225Z,12.70
2023-04-07T17:05:44.595Z,12.60
2023-04-07T17:08:11.657Z,12.70
2023-04-07T17:10:38.379Z,12.60
2023-04-07T17:13:05.177Z,12.60
2023-04-07T17:15:35.215Z,12.70
2023-04-07T17:18:01.923Z,12.60
2023-04-07T17:20:28.578Z,12.60
2023-04-07T17:22:55.523Z,12.40
2023-04-07T17:25:22.192Z,12.40
2023-04-07T17:27:49.066Z,12.40
2023-04-07T17:30:15.789Z,12.50
2023-04-07T17:32:42.560Z,12.40
2023-04-07T17:35:09.593Z,12.30
2023-04-07T17:37:36.295Z,12.30
2023-04-07T17:40:03.166Z,12.30
2023-04-07T17:42:29.888Z,12.30
2023-04-07T17:44:56.825Z,12.20
2023-04-07T17:47:24.266Z,12.10
2023-04-07T17:49:50.997Z,12.10
2023-04-07T17:52:17.752Z,12.10
2023-04-07T17:54:44.571Z,12.00
2023-04-07T17:57:14.172Z,12.00
2023-04-07T17:59:40.917Z,12.00
2023-04-07T18:02:11.004Z,11.90
2023-04-07T18:04:38.613Z,11.90
2023-04-07T18:07:05.658Z,11.80
2023-04-07T18:09:33.271Z,11.80
2023-04-07T18:12:02.442Z,11.70
2023-04-07T18:14:29.201Z,11.70
2023-04-07T18:16:56.137Z,11.40
2023-04-07T18:19:23.141Z,11.50
2023-04-07T18:21:52.868Z,11.20
2023-04-07T18:24:20.839Z,11.20
2023-04-07T18:26:48.041Z,11.30
2023-04-07T18:29:15.003Z,11.30
2023-04-07T18:31:42.425Z,11.30
2023-04-07T18:34:12.309Z,11.40
2023-04-07T18:36:41.314Z,11.40
2023-04-07T18:39:08.525Z,11.30
2023-04-07T18:41:35.644Z,11.20
2023-04-07T18:44:02.419Z,10.90
2023-04-07T18:46:29.130Z,10.80
2023-04-07T18:48:56.018Z,10.90
2023-04-07T18:51:22.778Z,10.90
2023-04-07T18:53:49.733Z,10.90
2023-04-07T18:56:16.834Z,10.90
2023-04-07T18:58:45.043Z,10.90
2023-04-07T19:01:13.405Z,11.00
2023-04-07T19:03:41.754Z,11.00
2023-04-07T19:06:09.196Z,10.90
2023-04-07T19:08:36.674Z,11.10
2023-04-07T19:11:03.784Z,11.00
2023-04-07T19:13:32.698Z,10.90
2023-04-07T19:15:59.398Z,10.80
2023-04-07T19:18:28.113Z,10.70
2023-04-07T19:20:57.061Z,10.70
2023-04-07T19:23:27.034Z,10.70
2023-04-07T19:25:54.378Z,10.70
2023-04-07T19:28:21.366Z,10.80
2023-04-07T19:30:48.143Z,10.90
2023-04-07T19:33:16.059Z,10.80
2023-04-07T19:35:42.844Z,10.90
2023-04-07T19:38:09.581Z,10.80
2023-04-07T19:40:36.704Z,10.90
2023-04-07T19:43:03.463Z,10.80
2023-04-07T19:45:30.264Z,10.90
2023-04-07T19:47:57.221Z,10.90
2023-04-07T19:50:25.094Z,10.80
2023-04-07T19:52:53.275Z,10.90
2023-04-07T19:55:20.549Z,10.80
2023-04-07T19:57:49.804Z,10.90
2023-04-07T20:00:16.963Z,11.00
2023-04-07T20:02:43.834Z,10.80
2023-04-07T20:05:13.702Z,10.90
2023-04-07T20:07:46.123Z,11.00
2023-04-07T20:10:12.804Z,11.00
2023-04-07T20:12:39.493Z,10.90
2023-04-07T20:15:07.874Z,10.90
2023-04-07T20:17:36.753Z,10.90
2023-04-07T20:20:04.856Z,10.80
2023-04-07T20:22:32.833Z,10.80
2023-04-07T20:24:59.566Z,10.80
2023-04-07T20:27:27.122Z,10.70
2023-04-07T20:29:53.862Z,10.60
2023-04-07T20:32:20.671Z,10.60
2023-04-07T20:34:48.230Z,10.60
2023-04-07T20:37:14.893Z,10.50
2023-04-07T20:39:41.611Z,10.50
2023-04-07T20:42:08.400Z,10.50
2023-04-07T20:44:35.144Z,10.50
2023-04-07T20:47:08.465Z,10.50
2023-04-07T20:49:36.772Z,10.60
2023-04-07T20:52:03.894Z,10.60
2023-04-07T20:54:31.013Z,10.50
2023-04-07T20:56:57.743Z,10.50
2023-04-07T20:59:25.692Z,10.40
2023-04-07T21:01:52.549Z,10.40
2023-04-07T21:04:19.892Z,10.40
2023-04-07T21:06:46.842Z,10.40
2023-04-07T21:09:13.502Z,10.50
2023-04-07T21:11:40.298Z,10.40
2023-04-07T21:14:07.104Z,10.20
2023-04-07T21:16:33.782Z,10.30
2023-04-07T21:19:00.844Z,10.30
2023-04-07T21:21:27.638Z,10.20
2023-04-07T21:23:54.411Z,10.30
2023-04-07T21:26:21.175Z,10.30
2023-04-07T21:28:47.978Z,10.20
2023-04-07T21:31:22.492Z,10.30
2023-04-07T21:33:49.675Z,10.10
2023-04-07T21:36:16.390Z,10.20
2023-04-07T21:38:43.072Z,10.30
2023-04-07T21:41:10.287Z,10.30
2023-04-07T21:43:37.167Z,10.30
2023-04-07T21:46:03.951Z,10.30
2023-04-07T21:48:30.682Z,10.20
2023-04-07T21:50:57.701Z,10.20
2023-04-07T21:53:24.301Z,10.20
2023-04-07T21:55:51.861Z,10.20
2023-04-07T21:58:18.607Z,10.10
2023-04-07T22:00:48.152Z,10.00
2023-04-07T22:03:15.103Z,10.00
2023-04-07T22:05:41.991Z,10.00
2023-04-07T22:08:08.757Z,10.00
2023-04-07T22:10:35.412Z,10.00
2023-04-07T22:13:02.107Z,10.10
2023-04-07T22:15:28.821Z,10.10
2023-04-07T22:17:56.668Z,10.10
2023-04-07T22:20:25.504Z,10.10
2023-04-07T22:22:54.095Z,10.10
2023-04-07T22:25:20.961Z,10.10
2023-04-07T22:27:47.643Z,9.90
2023-04-07T22:30:14.366Z,10.00
2023-04-07T22:32:41.503Z,9.90
2023-04-07T22:35:08.627Z,9.80
2023-04-07T22:37:35.547Z,9.70
2023-04-07T22:40:02.297Z,9.70
2023-04-07T22:42:28.952Z,9.60
2023-04-07T22:44:55.738Z,9.70
2023-04-07T22:47:22.566Z,9.70
2023-04-07T22:49:49.315Z,9.80
2023-04-07T22:52:16.045Z,9.80
2023-04-07T22:54:42.725Z,9.80
2023-04-07T22:57:09.418Z,9.90
2023-04-07T22:59:36.451Z,9.80
2023-04-07T23:02:03.175Z,9.80
2023-04-07T23:04:29.880Z,9.90
2023-04-07T23:06:56.763Z,9.90
2023-04-07T23:09:23.454Z,9.90
2023-04-07T23:11:50.201Z,9.90
2023-04-07T23:14:16.950Z,9.90
2023-04-07T23:16:43.682Z,9.90
2023-04-07T23:19:15.742Z,10.00
2023-04-07T23:21:43.076Z,9.90
2023-04-07T23:24:10.277Z,9.90
2023-04-07T23:26:36.971Z,10.00
2023-04-07T23:29:03.640Z,9.90
2023-04-07T23:31:30.977Z,9.90
2023-04-07T23:33:59.512Z,9.90
2023-04-07T23:36:27.174Z,9.90
2023-04-07T23:38:56.159Z,9.90
2023-04-07T23:41:23.437Z,9.90
2023-04-07T23:43:50.156Z,9.90
2023-04-07T23:46:16.919Z,9.90
2023-04-07T23:48:43.614Z,9.90
2023-04-07T23:51:10.312Z,9.90
2023-04-07T23:53:36.907Z,9.80
2023-04-07T23:56:03.648Z,9.80
2023-04-07T23:58:30.411Z,9.90
